EGQK - Kinloss
Distance from station: E 5mi, 14km
Updated: 10/22/2017 10:50pm
Overcast
Overcast
 Wind from E
Wind: E 7 mph , 11 km/h
Temperature: 46°F , 8°C
Wind Chill: 42°F , 6°C
Dew Point: 41°F , 5°C
Humidity: 82%
Barometer: 29.74 inHg , 1007 hPa
Clouds: Overcast
Visibility: 6 miles , 10 km
Cloud details: Overcast 8000 ft
2017/10/23 05:50 EGQK 230550Z AUTO 08006KT 9999 OVC080/// 08/05 Q1007 RERA